Aérodrome :
LOGIN :

S'inscrire | Disclaimer

   EN    FR    IT 

 










Légende :    VFR   VFR Marginal   IFR   IFR Intensif   IFR Très Intensif
Visi : 
Plafond : 
>= 8 km
>= 3000ft
5 à 8 km
1000 à 3000 ft
1500m à 5 km
500 à 1000 ft
800 à 1500m
200 à 500 ft
< 800m
< 200 ft
Symboles :   Orages  Brouillard  Fortes neiges  Fortes précipitations  Vent > 20 kt
SIGMETs :   Divers  Orages  Givrage  Turbulence  Onde Orograph.  Cendres Volcan.






- Altitude de l'aérodrome : 2776 ft
- Code IATA : VLL


LEVD - Valladolid

DERNIER METAR :
  • 210800Z 21007KT 9999 SCT009 BKN030 05/04 Q1006

METARs EXPIRÉS :
  • 210730Z 22008KT 9999 BKN008 05/04 Q1006
  • 210700Z 22008KT 9999 -DZ OVC007 05/04 Q1005
  • 210630Z 23007KT 6000 -DZ FEW009 BKN017 OVC023 05/04 Q1005
  • 210622Z 23008KT 4700 BR FEW009 BKN017 OVC023 05/04 Q1005
  • 210600Z 24008KT 9999 BKN021 BKN030 OVC042 05/04 Q1005
  • 210530Z AUTO 23012KT 9999 -RA SCT010 BKN042 05/04 Q1005

TAF TAF LEVD
Valide du 21 à 06h jusqu'au 22 à 06h UTC


210500Z 2106/2206 22010KT 9999 FEW020 BKN030 TX09/2114Z TN04/2106Z
PROB30
TEMPO 2106/2112 BKN012
PROB30
TEMPO 2106/2118 4000 RA BKN006
BECMG 2203/2205 RA BKN008



MET'MAP, la Météo Aéronautique d'un coup d'oeil ! - Copyright ORBIFLY Décembre 2007 - Disclaimer

ORBIFLY MET'MAP TEAM :

Programmation & Développement : Alexandra Zaïnal
Conception & Développement : Baudouin d'Aumeries
Co-Programmation & Développement : Marc-Olivier Méhu
Soutien technique & logistique : Manuel Goepfert

Contact : metmap@orbifly.com




SOURCES & CREDITS :

   NOAA